sensor_id;sensor_type;location;lat;lon;timestamp;P1;durP1;ratioP1;P2;durP2;ratioP2
7383;SDS011;3733;47.994;8.820;2023-09-07T00:01:16;9.67;;;7.17;;
7383;SDS011;3733;47.994;8.820;2023-09-07T00:03:42;9.00;;;6.90;;
7383;SDS011;3733;47.994;8.820;2023-09-07T00:06:07;12.73;;;7.17;;
7383;SDS011;3733;47.994;8.820;2023-09-07T00:08:33;10.80;;;7.23;;
7383;SDS011;3733;47.994;8.820;2023-09-07T00:11:02;8.30;;;6.77;;
7383;SDS011;3733;47.994;8.820;2023-09-07T00:13:29;10.50;;;7.97;;
7383;SDS011;3733;47.994;8.820;2023-09-07T00:15:57;9.00;;;7.30;;
7383;SDS011;3733;47.994;8.820;2023-09-07T00:18:24;9.70;;;8.00;;
7383;SDS011;3733;47.994;8.820;2023-09-07T00:20:50;10.13;;;7.10;;
7383;SDS011;3733;47.994;8.820;2023-09-07T00:23:15;10.10;;;8.00;;
7383;SDS011;3733;47.994;8.820;2023-09-07T00:25:41;9.70;;;6.97;;
7383;SDS011;3733;47.994;8.820;2023-09-07T00:28:06;12.50;;;7.60;;
7383;SDS011;3733;47.994;8.820;2023-09-07T00:30:32;10.93;;;7.57;;
7383;SDS011;3733;47.994;8.820;2023-09-07T00:32:58;10.47;;;7.67;;
7383;SDS011;3733;47.994;8.820;2023-09-07T00:35:23;17.53;;;8.80;;
7383;SDS011;3733;47.994;8.820;2023-09-07T00:37:49;13.03;;;8.33;;
7383;SDS011;3733;47.994;8.820;2023-09-07T00:40:14;9.97;;;7.83;;
7383;SDS011;3733;47.994;8.820;2023-09-07T00:42:40;10.97;;;8.00;;
7383;SDS011;3733;47.994;8.820;2023-09-07T00:45:06;10.87;;;7.83;;
7383;SDS011;3733;47.994;8.820;2023-09-07T00:47:33;9.60;;;7.80;;
7383;SDS011;3733;47.994;8.820;2023-09-07T00:50:01;11.57;;;8.37;;
7383;SDS011;3733;47.994;8.820;2023-09-07T00:52:28;9.17;;;7.83;;
7383;SDS011;3733;47.994;8.820;2023-09-07T00:54:53;12.83;;;7.90;;
7383;SDS011;3733;47.994;8.820;2023-09-07T00:57:19;17.67;;;9.10;;
7383;SDS011;3733;47.994;8.820;2023-09-07T00:59:44;18.13;;;9.07;;
7383;SDS011;3733;47.994;8.820;2023-09-07T01:02:10;11.97;;;7.20;;
7383;SDS011;3733;47.994;8.820;2023-09-07T01:04:36;9.07;;;7.10;;
7383;SDS011;3733;47.994;8.820;2023-09-07T01:07:16;11.67;;;7.70;;
7383;SDS011;3733;47.994;8.820;2023-09-07T01:09:46;9.00;;;7.63;;
7383;SDS011;3733;47.994;8.820;2023-09-07T01:12:14;11.43;;;8.40;;
7383;SDS011;3733;47.994;8.820;2023-09-07T01:14:40;10.57;;;7.80;;
7383;SDS011;3733;47.994;8.820;2023-09-07T01:17:05;11.10;;;7.43;;
7383;SDS011;3733;47.994;8.820;2023-09-07T01:19:33;11.73;;;7.77;;
7383;SDS011;3733;47.994;8.820;2023-09-07T01:21:59;11.27;;;8.00;;
7383;SDS011;3733;47.994;8.820;2023-09-07T01:24:25;8.77;;;7.30;;
7383;SDS011;3733;47.994;8.820;2023-09-07T01:26:54;15.77;;;7.97;;
7383;SDS011;3733;47.994;8.820;2023-09-07T01:29:22;9.77;;;7.40;;
7383;SDS011;3733;47.994;8.820;2023-09-07T01:31:48;9.43;;;7.37;;
7383;SDS011;3733;47.994;8.820;2023-09-07T01:34:13;11.43;;;7.10;;
7383;SDS011;3733;47.994;8.820;2023-09-07T01:36:40;9.27;;;7.33;;
7383;SDS011;3733;47.994;8.820;2023-09-07T01:39:06;10.80;;;7.80;;
7383;SDS011;3733;47.994;8.820;2023-09-07T01:41:33;10.67;;;7.47;;
7383;SDS011;3733;47.994;8.820;2023-09-07T01:43:59;9.40;;;7.17;;
7383;SDS011;3733;47.994;8.820;2023-09-07T01:46:24;8.30;;;7.33;;
7383;SDS011;3733;47.994;8.820;2023-09-07T01:48:50;8.70;;;6.93;;
7383;SDS011;3733;47.994;8.820;2023-09-07T01:51:15;8.83;;;7.00;;
7383;SDS011;3733;47.994;8.820;2023-09-07T01:53:41;9.50;;;7.13;;
7383;SDS011;3733;47.994;8.820;2023-09-07T01:56:07;10.27;;;7.03;;
7383;SDS011;3733;47.994;8.820;2023-09-07T01:58:32;9.13;;;7.37;;
7383;SDS011;3733;47.994;8.820;2023-09-07T02:00:59;8.40;;;7.03;;
7383;SDS011;3733;47.994;8.820;2023-09-07T02:03:25;8.33;;;5.83;;
7383;SDS011;3733;47.994;8.820;2023-09-07T02:05:52;9.93;;;7.27;;
7383;SDS011;3733;47.994;8.820;2023-09-07T02:08:18;9.63;;;6.50;;
7383;SDS011;3733;47.994;8.820;2023-09-07T02:10:44;8.57;;;7.07;;
7383;SDS011;3733;47.994;8.820;2023-09-07T02:13:10;8.20;;;6.77;;
7383;SDS011;3733;47.994;8.820;2023-09-07T02:15:39;10.67;;;7.00;;
7383;SDS011;3733;47.994;8.820;2023-09-07T02:18:05;12.10;;;7.03;;
7383;SDS011;3733;47.994;8.820;2023-09-07T02:20:31;9.07;;;6.60;;
7383;SDS011;3733;47.994;8.820;2023-09-07T02:22:57;10.07;;;7.27;;
7383;SDS011;3733;47.994;8.820;2023-09-07T02:25:23;8.80;;;7.07;;
7383;SDS011;3733;47.994;8.820;2023-09-07T02:27:49;13.20;;;7.10;;
7383;SDS011;3733;47.994;8.820;2023-09-07T02:30:14;8.20;;;6.27;;
7383;SDS011;3733;47.994;8.820;2023-09-07T02:32:43;8.90;;;6.77;;
7383;SDS011;3733;47.994;8.820;2023-09-07T02:35:09;7.57;;;6.77;;
7383;SDS011;3733;47.994;8.820;2023-09-07T02:37:35;13.37;;;6.13;;
7383;SDS011;3733;47.994;8.820;2023-09-07T02:40:01;8.53;;;6.33;;
7383;SDS011;3733;47.994;8.820;2023-09-07T02:42:31;10.90;;;7.07;;
7383;SDS011;3733;47.994;8.820;2023-09-07T02:44:57;13.17;;;6.50;;
7383;SDS011;3733;47.994;8.820;2023-09-07T02:47:22;10.27;;;6.60;;
7383;SDS011;3733;47.994;8.820;2023-09-07T02:49:48;7.60;;;6.70;;
7383;SDS011;3733;47.994;8.820;2023-09-07T02:52:14;10.17;;;7.27;;
7383;SDS011;3733;47.994;8.820;2023-09-07T02:54:39;9.47;;;7.83;;
7383;SDS011;3733;47.994;8.820;2023-09-07T02:57:06;7.33;;;6.00;;
7383;SDS011;3733;47.994;8.820;2023-09-07T02:59:32;8.33;;;6.20;;
7383;SDS011;3733;47.994;8.820;2023-09-07T03:01:58;10.73;;;6.83;;
7383;SDS011;3733;47.994;8.820;2023-09-07T03:04:23;9.90;;;7.33;;
7383;SDS011;3733;47.994;8.820;2023-09-07T03:06:49;9.20;;;7.10;;
7383;SDS011;3733;47.994;8.820;2023-09-07T03:09:15;8.93;;;6.73;;
7383;SDS011;3733;47.994;8.820;2023-09-07T03:11:40;9.37;;;7.53;;
7383;SDS011;3733;47.994;8.820;2023-09-07T03:14:06;10.63;;;7.27;;
7383;SDS011;3733;47.994;8.820;2023-09-07T03:16:31;11.40;;;8.40;;
7383;SDS011;3733;47.994;8.820;2023-09-07T03:18:57;14.03;;;7.33;;
7383;SDS011;3733;47.994;8.820;2023-09-07T03:21:23;9.13;;;7.00;;
7383;SDS011;3733;47.994;8.820;2023-09-07T03:23:54;9.67;;;7.20;;
7383;SDS011;3733;47.994;8.820;2023-09-07T03:26:23;12.90;;;6.80;;
7383;SDS011;3733;47.994;8.820;2023-09-07T03:28:48;8.60;;;6.20;;
7383;SDS011;3733;47.994;8.820;2023-09-07T03:31:14;9.70;;;7.00;;
7383;SDS011;3733;47.994;8.820;2023-09-07T03:33:40;10.63;;;6.60;;
7383;SDS011;3733;47.994;8.820;2023-09-07T03:36:05;8.10;;;6.80;;
7383;SDS011;3733;47.994;8.820;2023-09-07T03:38:31;9.17;;;7.00;;
7383;SDS011;3733;47.994;8.820;2023-09-07T03:40:57;10.23;;;7.30;;
7383;SDS011;3733;47.994;8.820;2023-09-07T03:43:22;10.77;;;6.90;;
7383;SDS011;3733;47.994;8.820;2023-09-07T03:45:48;10.07;;;6.87;;
7383;SDS011;3733;47.994;8.820;2023-09-07T03:48:13;9.10;;;6.43;;
7383;SDS011;3733;47.994;8.820;2023-09-07T03:50:39;8.07;;;6.50;;
7383;SDS011;3733;47.994;8.820;2023-09-07T03:53:04;10.23;;;6.20;;
7383;SDS011;3733;47.994;8.820;2023-09-07T03:55:33;9.03;;;7.17;;
7383;SDS011;3733;47.994;8.820;2023-09-07T03:58:05;8.10;;;6.23;;
7383;SDS011;3733;47.994;8.820;2023-09-07T04:00:31;8.70;;;6.60;;
7383;SDS011;3733;47.994;8.820;2023-09-07T04:02:56;11.10;;;7.50;;
7383;SDS011;3733;47.994;8.820;2023-09-07T04:05:22;8.17;;;7.27;;
7383;SDS011;3733;47.994;8.820;2023-09-07T04:07:49;10.37;;;7.60;;
7383;SDS011;3733;47.994;8.820;2023-09-07T04:10:15;11.00;;;7.57;;
7383;SDS011;3733;47.994;8.820;2023-09-07T04:12:41;9.70;;;7.30;;
7383;SDS011;3733;47.994;8.820;2023-09-07T04:15:07;10.00;;;7.77;;
7383;SDS011;3733;47.994;8.820;2023-09-07T04:17:33;13.10;;;8.30;;
7383;SDS011;3733;47.994;8.820;2023-09-07T04:20:05;11.73;;;8.27;;
7383;SDS011;3733;47.994;8.820;2023-09-07T04:22:32;10.27;;;7.80;;
7383;SDS011;3733;47.994;8.820;2023-09-07T04:24:57;10.50;;;7.87;;
7383;SDS011;3733;47.994;8.820;2023-09-07T04:27:23;9.10;;;7.67;;
7383;SDS011;3733;47.994;8.820;2023-09-07T04:29:49;11.17;;;7.53;;
7383;SDS011;3733;47.994;8.820;2023-09-07T04:32:15;10.00;;;7.50;;
7383;SDS011;3733;47.994;8.820;2023-09-07T04:34:40;9.87;;;7.33;;
7383;SDS011;3733;47.994;8.820;2023-09-07T04:37:06;12.83;;;7.30;;
7383;SDS011;3733;47.994;8.820;2023-09-07T04:39:31;8.00;;;6.73;;
7383;SDS011;3733;47.994;8.820;2023-09-07T04:41:57;8.60;;;6.97;;
7383;SDS011;3733;47.994;8.820;2023-09-07T04:44:23;9.27;;;7.53;;
7383;SDS011;3733;47.994;8.820;2023-09-07T04:46:48;10.47;;;7.40;;
7383;SDS011;3733;47.994;8.820;2023-09-07T04:49:15;8.60;;;6.90;;
7383;SDS011;3733;47.994;8.820;2023-09-07T04:51:40;10.77;;;6.30;;
7383;SDS011;3733;47.994;8.820;2023-09-07T04:54:06;10.27;;;6.80;;
7383;SDS011;3733;47.994;8.820;2023-09-07T04:56:31;13.03;;;7.67;;
7383;SDS011;3733;47.994;8.820;2023-09-07T04:58:57;10.90;;;7.10;;
7383;SDS011;3733;47.994;8.820;2023-09-07T05:01:23;8.37;;;6.57;;
7383;SDS011;3733;47.994;8.820;2023-09-07T05:03:49;9.70;;;7.00;;
7383;SDS011;3733;47.994;8.820;2023-09-07T05:06:16;9.37;;;6.73;;
7383;SDS011;3733;47.994;8.820;2023-09-07T05:08:41;9.63;;;7.23;;
7383;SDS011;3733;47.994;8.820;2023-09-07T05:11:07;9.50;;;7.10;;
7383;SDS011;3733;47.994;8.820;2023-09-07T05:13:32;7.80;;;6.73;;
7383;SDS011;3733;47.994;8.820;2023-09-07T05:15:58;8.27;;;6.53;;
7383;SDS011;3733;47.994;8.820;2023-09-07T05:18:25;13.57;;;6.70;;
7383;SDS011;3733;47.994;8.820;2023-09-07T05:20:51;7.70;;;6.43;;
7383;SDS011;3733;47.994;8.820;2023-09-07T05:23:17;6.60;;;5.87;;
7383;SDS011;3733;47.994;8.820;2023-09-07T05:25:48;8.20;;;6.87;;
7383;SDS011;3733;47.994;8.820;2023-09-07T05:28:15;8.30;;;6.40;;
7383;SDS011;3733;47.994;8.820;2023-09-07T05:30:42;8.00;;;6.73;;
7383;SDS011;3733;47.994;8.820;2023-09-07T05:33:11;10.13;;;7.07;;
7383;SDS011;3733;47.994;8.820;2023-09-07T05:35:39;8.53;;;6.30;;
7383;SDS011;3733;47.994;8.820;2023-09-07T05:38:05;6.77;;;5.97;;
7383;SDS011;3733;47.994;8.820;2023-09-07T05:40:34;8.33;;;6.13;;
7383;SDS011;3733;47.994;8.820;2023-09-07T05:43:01;7.77;;;6.00;;
7383;SDS011;3733;47.994;8.820;2023-09-07T05:45:26;9.07;;;7.00;;
7383;SDS011;3733;47.994;8.820;2023-09-07T05:47:52;10.30;;;7.20;;
7383;SDS011;3733;47.994;8.820;2023-09-07T05:50:18;10.90;;;7.67;;
7383;SDS011;3733;47.994;8.820;2023-09-07T05:52:43;9.13;;;6.90;;
7383;SDS011;3733;47.994;8.820;2023-09-07T05:55:09;9.50;;;6.53;;
7383;SDS011;3733;47.994;8.820;2023-09-07T05:57:35;11.00;;;6.80;;
7383;SDS011;3733;47.994;8.820;2023-09-07T06:00:01;10.23;;;6.37;;
7383;SDS011;3733;47.994;8.820;2023-09-07T06:02:27;7.93;;;6.70;;
7383;SDS011;3733;47.994;8.820;2023-09-07T06:04:53;10.37;;;7.03;;
7383;SDS011;3733;47.994;8.820;2023-09-07T06:07:18;8.33;;;6.60;;
7383;SDS011;3733;47.994;8.820;2023-09-07T06:09:44;9.10;;;6.87;;
7383;SDS011;3733;47.994;8.820;2023-09-07T06:12:10;8.90;;;7.87;;
7383;SDS011;3733;47.994;8.820;2023-09-07T06:14:35;8.80;;;7.07;;
7383;SDS011;3733;47.994;8.820;2023-09-07T06:17:01;9.00;;;7.77;;
7383;SDS011;3733;47.994;8.820;2023-09-07T06:19:27;9.30;;;7.00;;
7383;SDS011;3733;47.994;8.820;2023-09-07T06:21:53;16.10;;;9.23;;
7383;SDS011;3733;47.994;8.820;2023-09-07T06:24:18;10.50;;;7.60;;
7383;SDS011;3733;47.994;8.820;2023-09-07T06:26:45;9.20;;;7.50;;
7383;SDS011;3733;47.994;8.820;2023-09-07T06:29:11;10.33;;;7.27;;
7383;SDS011;3733;47.994;8.820;2023-09-07T06:31:36;11.20;;;7.07;;
7383;SDS011;3733;47.994;8.820;2023-09-07T06:34:02;9.60;;;7.93;;
7383;SDS011;3733;47.994;8.820;2023-09-07T06:36:29;8.93;;;6.57;;
7383;SDS011;3733;47.994;8.820;2023-09-07T06:38:55;8.63;;;6.50;;
7383;SDS011;3733;47.994;8.820;2023-09-07T06:41:21;7.93;;;6.43;;
7383;SDS011;3733;47.994;8.820;2023-09-07T06:43:47;10.80;;;7.57;;
7383;SDS011;3733;47.994;8.820;2023-09-07T06:46:12;9.90;;;7.30;;
7383;SDS011;3733;47.994;8.820;2023-09-07T06:48:38;7.13;;;6.37;;
7383;SDS011;3733;47.994;8.820;2023-09-07T06:51:04;7.87;;;6.23;;
7383;SDS011;3733;47.994;8.820;2023-09-07T06:53:30;9.83;;;7.10;;
7383;SDS011;3733;47.994;8.820;2023-09-07T06:56:00;7.47;;;6.60;;
7383;SDS011;3733;47.994;8.820;2023-09-07T06:58:27;11.83;;;5.97;;
7383;SDS011;3733;47.994;8.820;2023-09-07T07:00:56;8.57;;;6.20;;
7383;SDS011;3733;47.994;8.820;2023-09-07T07:03:24;12.77;;;7.07;;
7383;SDS011;3733;47.994;8.820;2023-09-07T07:05:51;7.37;;;6.57;;
7383;SDS011;3733;47.994;8.820;2023-09-07T07:08:17;8.30;;;7.20;;
7383;SDS011;3733;47.994;8.820;2023-09-07T07:10:42;9.27;;;6.60;;
7383;SDS011;3733;47.994;8.820;2023-09-07T07:13:08;14.37;;;7.30;;
7383;SDS011;3733;47.994;8.820;2023-09-07T07:15:34;9.23;;;6.67;;
7383;SDS011;3733;47.994;8.820;2023-09-07T07:18:00;12.83;;;7.93;;
7383;SDS011;3733;47.994;8.820;2023-09-07T07:20:26;10.63;;;7.47;;
7383;SDS011;3733;47.994;8.820;2023-09-07T07:22:52;8.00;;;6.43;;
7383;SDS011;3733;47.994;8.820;2023-09-07T07:25:17;17.97;;;7.00;;
7383;SDS011;3733;47.994;8.820;2023-09-07T07:27:43;11.53;;;7.10;;
7383;SDS011;3733;47.994;8.820;2023-09-07T07:30:10;10.87;;;7.40;;
7383;SDS011;3733;47.994;8.820;2023-09-07T07:32:36;8.50;;;7.47;;
7383;SDS011;3733;47.994;8.820;2023-09-07T07:35:01;11.37;;;7.70;;
7383;SDS011;3733;47.994;8.820;2023-09-07T07:37:28;12.50;;;7.70;;
7383;SDS011;3733;47.994;8.820;2023-09-07T07:39:54;10.27;;;8.00;;
7383;SDS011;3733;47.994;8.820;2023-09-07T07:42:19;12.27;;;7.50;;
7383;SDS011;3733;47.994;8.820;2023-09-07T07:44:45;9.07;;;7.33;;
7383;SDS011;3733;47.994;8.820;2023-09-07T07:47:11;12.40;;;7.50;;
7383;SDS011;3733;47.994;8.820;2023-09-07T07:49:36;11.23;;;8.27;;
7383;SDS011;3733;47.994;8.820;2023-09-07T07:52:02;13.23;;;8.43;;
7383;SDS011;3733;47.994;8.820;2023-09-07T07:54:28;8.90;;;7.60;;
7383;SDS011;3733;47.994;8.820;2023-09-07T07:56:54;8.90;;;7.40;;
7383;SDS011;3733;47.994;8.820;2023-09-07T07:59:19;14.03;;;7.50;;
7383;SDS011;3733;47.994;8.820;2023-09-07T08:01:45;11.63;;;7.67;;
7383;SDS011;3733;47.994;8.820;2023-09-07T08:04:10;7.73;;;6.40;;
7383;SDS011;3733;47.994;8.820;2023-09-07T08:06:36;8.70;;;7.10;;
7383;SDS011;3733;47.994;8.820;2023-09-07T08:09:02;11.20;;;7.40;;
7383;SDS011;3733;47.994;8.820;2023-09-07T08:11:28;8.63;;;6.83;;
7383;SDS011;3733;47.994;8.820;2023-09-07T08:13:53;7.67;;;6.87;;
7383;SDS011;3733;47.994;8.820;2023-09-07T08:16:19;9.63;;;6.60;;
7383;SDS011;3733;47.994;8.820;2023-09-07T08:18:45;7.73;;;6.10;;
7383;SDS011;3733;47.994;8.820;2023-09-07T08:21:11;9.77;;;6.83;;
7383;SDS011;3733;47.994;8.820;2023-09-07T08:23:39;11.43;;;8.00;;
7383;SDS011;3733;47.994;8.820;2023-09-07T08:26:04;11.03;;;7.90;;
7383;SDS011;3733;47.994;8.820;2023-09-07T08:28:30;9.50;;;6.70;;
7383;SDS011;3733;47.994;8.820;2023-09-07T08:30:56;8.00;;;7.13;;
7383;SDS011;3733;47.994;8.820;2023-09-07T08:33:24;7.63;;;6.63;;
7383;SDS011;3733;47.994;8.820;2023-09-07T08:35:54;8.77;;;5.93;;
7383;SDS011;3733;47.994;8.820;2023-09-07T08:38:20;12.10;;;6.73;;
7383;SDS011;3733;47.994;8.820;2023-09-07T08:40:53;7.90;;;6.50;;
7383;SDS011;3733;47.994;8.820;2023-09-07T08:43:20;13.90;;;6.57;;
7383;SDS011;3733;47.994;8.820;2023-09-07T08:45:49;8.43;;;6.97;;
7383;SDS011;3733;47.994;8.820;2023-09-07T08:48:22;9.80;;;6.73;;
7383;SDS011;3733;47.994;8.820;2023-09-07T08:50:50;8.87;;;6.43;;
7383;SDS011;3733;47.994;8.820;2023-09-07T08:53:18;12.20;;;7.40;;
7383;SDS011;3733;47.994;8.820;2023-09-07T08:55:45;17.30;;;8.17;;
7383;SDS011;3733;47.994;8.820;2023-09-07T08:58:11;9.17;;;7.20;;
7383;SDS011;3733;47.994;8.820;2023-09-07T09:00:36;9.27;;;7.40;;
7383;SDS011;3733;47.994;8.820;2023-09-07T09:03:03;9.27;;;7.17;;
7383;SDS011;3733;47.994;8.820;2023-09-07T09:05:29;7.00;;;6.30;;
7383;SDS011;3733;47.994;8.820;2023-09-07T09:08:04;11.70;;;7.43;;
7383;SDS011;3733;47.994;8.820;2023-09-07T09:10:30;10.13;;;7.37;;
7383;SDS011;3733;47.994;8.820;2023-09-07T09:12:56;17.20;;;7.67;;
7383;SDS011;3733;47.994;8.820;2023-09-07T09:15:24;15.87;;;7.70;;
7383;SDS011;3733;47.994;8.820;2023-09-07T09:17:52;12.60;;;6.90;;
7383;SDS011;3733;47.994;8.820;2023-09-07T09:20:24;8.23;;;6.93;;
7383;SDS011;3733;47.994;8.820;2023-09-07T09:22:54;7.70;;;6.80;;
7383;SDS011;3733;47.994;8.820;2023-09-07T09:25:20;9.30;;;6.60;;
7383;SDS011;3733;47.994;8.820;2023-09-07T09:27:49;10.63;;;6.80;;
7383;SDS011;3733;47.994;8.820;2023-09-07T09:30:15;12.00;;;6.63;;
7383;SDS011;3733;47.994;8.820;2023-09-07T09:32:44;8.13;;;6.70;;
7383;SDS011;3733;47.994;8.820;2023-09-07T09:35:10;8.07;;;6.53;;
7383;SDS011;3733;47.994;8.820;2023-09-07T09:37:45;9.27;;;6.70;;
7383;SDS011;3733;47.994;8.820;2023-09-07T09:40:13;7.63;;;6.23;;
7383;SDS011;3733;47.994;8.820;2023-09-07T09:42:40;8.27;;;6.10;;
7383;SDS011;3733;47.994;8.820;2023-09-07T09:45:07;8.23;;;6.33;;
7383;SDS011;3733;47.994;8.820;2023-09-07T09:47:35;8.63;;;6.57;;
7383;SDS011;3733;47.994;8.820;2023-09-07T09:50:04;13.07;;;5.90;;
7383;SDS011;3733;47.994;8.820;2023-09-07T09:52:33;11.57;;;6.20;;
7383;SDS011;3733;47.994;8.820;2023-09-07T09:55:01;7.23;;;6.00;;
7383;SDS011;3733;47.994;8.820;2023-09-07T09:57:33;11.10;;;6.67;;
7383;SDS011;3733;47.994;8.820;2023-09-07T09:59:59;7.40;;;6.20;;
7383;SDS011;3733;47.994;8.820;2023-09-07T10:02:31;7.37;;;5.73;;
7383;SDS011;3733;47.994;8.820;2023-09-07T10:05:00;7.03;;;5.60;;
7383;SDS011;3733;47.994;8.820;2023-09-07T10:07:44;10.33;;;6.23;;
7383;SDS011;3733;47.994;8.820;2023-09-07T10:10:13;8.20;;;6.57;;
7383;SDS011;3733;47.994;8.820;2023-09-07T10:12:42;6.97;;;5.43;;
7383;SDS011;3733;47.994;8.820;2023-09-07T10:15:22;6.20;;;5.60;;
7383;SDS011;3733;47.994;8.820;2023-09-07T10:17:48;9.27;;;5.90;;
7383;SDS011;3733;47.994;8.820;2023-09-07T10:20:18;7.80;;;5.30;;
7383;SDS011;3733;47.994;8.820;2023-09-07T10:22:47;8.57;;;5.90;;
7383;SDS011;3733;47.994;8.820;2023-09-07T10:25:20;12.00;;;6.00;;
7383;SDS011;3733;47.994;8.820;2023-09-07T10:27:47;7.60;;;6.03;;
7383;SDS011;3733;47.994;8.820;2023-09-07T10:30:13;6.93;;;5.83;;
7383;SDS011;3733;47.994;8.820;2023-09-07T10:32:41;7.83;;;6.17;;
7383;SDS011;3733;47.994;8.820;2023-09-07T10:35:16;6.20;;;5.50;;
7383;SDS011;3733;47.994;8.820;2023-09-07T10:37:44;11.93;;;5.93;;
7383;SDS011;3733;47.994;8.820;2023-09-07T10:40:18;8.30;;;5.97;;
7383;SDS011;3733;47.994;8.820;2023-09-07T10:42:47;6.67;;;5.50;;
7383;SDS011;3733;47.994;8.820;2023-09-07T10:45:13;7.27;;;5.73;;
7383;SDS011;3733;47.994;8.820;2023-09-07T10:47:41;9.03;;;5.80;;
7383;SDS011;3733;47.994;8.820;2023-09-07T10:50:09;6.40;;;5.37;;
7383;SDS011;3733;47.994;8.820;2023-09-07T10:52:36;5.40;;;4.90;;
7383;SDS011;3733;47.994;8.820;2023-09-07T10:55:01;5.00;;;4.50;;
7383;SDS011;3733;47.994;8.820;2023-09-07T10:57:27;6.33;;;4.60;;
7383;SDS011;3733;47.994;8.820;2023-09-07T10:59:53;8.57;;;4.80;;
7383;SDS011;3733;47.994;8.820;2023-09-07T11:02:20;5.40;;;4.20;;
7383;SDS011;3733;47.994;8.820;2023-09-07T11:04:45;5.53;;;4.80;;
7383;SDS011;3733;47.994;8.820;2023-09-07T11:07:11;4.80;;;4.40;;
7383;SDS011;3733;47.994;8.820;2023-09-07T11:09:41;6.57;;;4.60;;
7383;SDS011;3733;47.994;8.820;2023-09-07T11:12:07;7.40;;;4.63;;
7383;SDS011;3733;47.994;8.820;2023-09-07T11:14:33;8.10;;;4.67;;
7383;SDS011;3733;47.994;8.820;2023-09-07T11:17:02;6.63;;;4.97;;
7383;SDS011;3733;47.994;8.820;2023-09-07T11:19:31;5.10;;;4.53;;
7383;SDS011;3733;47.994;8.820;2023-09-07T11:21:58;5.20;;;4.70;;
7383;SDS011;3733;47.994;8.820;2023-09-07T11:24:24;6.20;;;5.60;;
7383;SDS011;3733;47.994;8.820;2023-09-07T11:26:51;6.87;;;5.10;;
7383;SDS011;3733;47.994;8.820;2023-09-07T11:29:17;6.13;;;4.80;;
7383;SDS011;3733;47.994;8.820;2023-09-07T11:31:44;6.10;;;4.77;;
7383;SDS011;3733;47.994;8.820;2023-09-07T11:34:10;6.73;;;4.93;;
7383;SDS011;3733;47.994;8.820;2023-09-07T11:36:37;4.87;;;4.37;;
7383;SDS011;3733;47.994;8.820;2023-09-07T11:39:04;6.50;;;4.50;;
7383;SDS011;3733;47.994;8.820;2023-09-07T11:41:48;6.47;;;4.93;;
7383;SDS011;3733;47.994;8.820;2023-09-07T11:44:13;5.00;;;4.40;;
7383;SDS011;3733;47.994;8.820;2023-09-07T11:46:39;5.93;;;5.03;;
7383;SDS011;3733;47.994;8.820;2023-09-07T11:49:05;5.93;;;4.53;;
7383;SDS011;3733;47.994;8.820;2023-09-07T11:51:31;6.63;;;5.20;;
7383;SDS011;3733;47.994;8.820;2023-09-07T11:53:57;7.65;;;4.28;;
7383;SDS011;3733;47.994;8.820;2023-09-07T11:56:22;6.90;;;5.07;;
7383;SDS011;3733;47.994;8.820;2023-09-07T11:58:48;6.68;;;4.60;;
7383;SDS011;3733;47.994;8.820;2023-09-07T12:01:14;5.38;;;4.75;;
7383;SDS011;3733;47.994;8.820;2023-09-07T12:03:43;9.57;;;4.72;;
7383;SDS011;3733;47.994;8.820;2023-09-07T12:06:09;6.18;;;5.07;;
7383;SDS011;3733;47.994;8.820;2023-09-07T12:08:36;4.35;;;3.92;;
7383;SDS011;3733;47.994;8.820;2023-09-07T12:11:02;5.20;;;4.70;;
7383;SDS011;3733;47.994;8.820;2023-09-07T12:13:27;5.88;;;5.03;;
7383;SDS011;3733;47.994;8.820;2023-09-07T12:15:53;4.90;;;4.40;;
7383;SDS011;3733;47.994;8.820;2023-09-07T12:18:20;7.47;;;4.22;;
7383;SDS011;3733;47.994;8.820;2023-09-07T12:20:46;5.53;;;5.03;;
7383;SDS011;3733;47.994;8.820;2023-09-07T12:23:12;8.23;;;5.25;;
7383;SDS011;3733;47.994;8.820;2023-09-07T12:25:37;4.85;;;4.43;;
7383;SDS011;3733;47.994;8.820;2023-09-07T12:28:03;8.15;;;4.65;;
7383;SDS011;3733;47.994;8.820;2023-09-07T12:30:29;10.60;;;4.65;;
7383;SDS011;3733;47.994;8.820;2023-09-07T12:32:54;4.57;;;4.18;;
7383;SDS011;3733;47.994;8.820;2023-09-07T12:35:20;6.55;;;4.82;;
7383;SDS011;3733;47.994;8.820;2023-09-07T12:37:46;4.93;;;4.30;;
7383;SDS011;3733;47.994;8.820;2023-09-07T12:40:12;9.77;;;4.95;;
7383;SDS011;3733;47.994;8.820;2023-09-07T12:42:41;5.25;;;4.75;;
7383;SDS011;3733;47.994;8.820;2023-09-07T12:45:09;5.95;;;5.10;;
7383;SDS011;3733;47.994;8.820;2023-09-07T12:47:35;10.13;;;5.13;;
7383;SDS011;3733;47.994;8.820;2023-09-07T12:50:01;6.57;;;5.43;;
7383;SDS011;3733;47.994;8.820;2023-09-07T12:52:27;5.30;;;4.80;;
7383;SDS011;3733;47.994;8.820;2023-09-07T12:54:53;10.13;;;4.55;;
7383;SDS011;3733;47.994;8.820;2023-09-07T12:57:19;6.07;;;5.25;;
7383;SDS011;3733;47.994;8.820;2023-09-07T12:59:44;5.10;;;4.60;;
7383;SDS011;3733;47.994;8.820;2023-09-07T13:02:10;5.88;;;4.65;;
7383;SDS011;3733;47.994;8.820;2023-09-07T13:04:35;7.30;;;4.70;;
7383;SDS011;3733;47.994;8.820;2023-09-07T13:07:01;7.00;;;4.90;;
7383;SDS011;3733;47.994;8.820;2023-09-07T13:09:27;13.93;;;4.93;;
7383;SDS011;3733;47.994;8.820;2023-09-07T13:11:52;6.00;;;5.03;;
7383;SDS011;3733;47.994;8.820;2023-09-07T13:14:18;7.63;;;4.72;;
7383;SDS011;3733;47.994;8.820;2023-09-07T13:16:44;8.00;;;4.55;;
7383;SDS011;3733;47.994;8.820;2023-09-07T13:19:09;5.88;;;4.30;;
7383;SDS011;3733;47.994;8.820;2023-09-07T13:21:36;5.22;;;4.30;;
7383;SDS011;3733;47.994;8.820;2023-09-07T13:24:02;12.35;;;5.20;;
7383;SDS011;3733;47.994;8.820;2023-09-07T13:26:28;7.15;;;5.15;;
7383;SDS011;3733;47.994;8.820;2023-09-07T13:28:54;7.70;;;5.35;;
7383;SDS011;3733;47.994;8.820;2023-09-07T13:31:19;6.03;;;5.20;;
7383;SDS011;3733;47.994;8.820;2023-09-07T13:33:45;4.72;;;4.30;;
7383;SDS011;3733;47.994;8.820;2023-09-07T13:36:10;7.00;;;4.55;;
7383;SDS011;3733;47.994;8.820;2023-09-07T13:38:36;6.25;;;4.28;;
7383;SDS011;3733;47.994;8.820;2023-09-07T13:41:02;5.65;;;4.03;;
7383;SDS011;3733;47.994;8.820;2023-09-07T13:43:27;5.65;;;4.80;;
7383;SDS011;3733;47.994;8.820;2023-09-07T13:45:53;9.63;;;4.80;;
7383;SDS011;3733;47.994;8.820;2023-09-07T13:48:19;4.03;;;3.63;;
7383;SDS011;3733;47.994;8.820;2023-09-07T13:50:44;4.82;;;4.22;;
7383;SDS011;3733;47.994;8.820;2023-09-07T13:53:10;8.45;;;4.75;;
7383;SDS011;3733;47.994;8.820;2023-09-07T13:55:35;6.65;;;4.32;;
7383;SDS011;3733;47.994;8.820;2023-09-07T13:58:04;5.32;;;4.82;;
7383;SDS011;3733;47.994;8.820;2023-09-07T14:00:30;5.20;;;4.32;;
7383;SDS011;3733;47.994;8.820;2023-09-07T14:02:56;4.65;;;4.13;;
7383;SDS011;3733;47.994;8.820;2023-09-07T14:05:22;5.10;;;4.60;;
7383;SDS011;3733;47.994;8.820;2023-09-07T14:07:47;5.03;;;4.43;;
7383;SDS011;3733;47.994;8.820;2023-09-07T14:10:13;7.13;;;4.80;;
7383;SDS011;3733;47.994;8.820;2023-09-07T14:12:39;5.03;;;4.63;;
7383;SDS011;3733;47.994;8.820;2023-09-07T14:15:04;4.32;;;3.85;;
7383;SDS011;3733;47.994;8.820;2023-09-07T14:17:30;6.25;;;4.22;;
7383;SDS011;3733;47.994;8.820;2023-09-07T14:19:56;5.20;;;4.63;;
7383;SDS011;3733;47.994;8.820;2023-09-07T14:22:21;5.32;;;4.80;;
7383;SDS011;3733;47.994;8.820;2023-09-07T14:24:47;6.47;;;4.38;;
7383;SDS011;3733;47.994;8.820;2023-09-07T14:27:13;5.57;;;5.07;;
7383;SDS011;3733;47.994;8.820;2023-09-07T14:29:38;5.50;;;4.40;;
7383;SDS011;3733;47.994;8.820;2023-09-07T14:32:04;6.15;;;4.88;;
7383;SDS011;3733;47.994;8.820;2023-09-07T14:34:30;7.57;;;4.30;;
7383;SDS011;3733;47.994;8.820;2023-09-07T14:36:55;5.20;;;4.18;;
7383;SDS011;3733;47.994;8.820;2023-09-07T14:39:21;7.30;;;5.22;;
7383;SDS011;3733;47.994;8.820;2023-09-07T14:41:49;6.00;;;4.93;;
7383;SDS011;3733;47.994;8.820;2023-09-07T14:44:17;5.97;;;4.80;;
7383;SDS011;3733;47.994;8.820;2023-09-07T14:46:43;5.22;;;4.47;;
7383;SDS011;3733;47.994;8.820;2023-09-07T14:49:08;5.53;;;5.03;;
7383;SDS011;3733;47.994;8.820;2023-09-07T14:51:34;5.75;;;4.30;;
7383;SDS011;3733;47.994;8.820;2023-09-07T14:54:00;6.57;;;4.68;;
7383;SDS011;3733;47.994;8.820;2023-09-07T14:56:25;6.60;;;4.85;;
7383;SDS011;3733;47.994;8.820;2023-09-07T14:58:52;11.20;;;4.85;;
7383;SDS011;3733;47.994;8.820;2023-09-07T15:01:17;6.78;;;4.78;;
7383;SDS011;3733;47.994;8.820;2023-09-07T15:03:43;8.38;;;4.72;;
7383;SDS011;3733;47.994;8.820;2023-09-07T15:06:08;6.63;;;4.78;;